This is the latest recevied weather packets stored in our database for station/object K0KDS. If no packets are shown the sender has not sent any weather packets the latest 1 day(s).
| Time | Temp. | Humidity | Pressure | Rain* | Wind** | Luminosity | Snow |
|---|---|---|---|---|---|---|---|
| 1778079749 | 10° C | 47% | 1015.6 hPa | 0 mm | - | - | - |
| 1778078849 | 9.44° C | 48% | 1015.6 hPa | 0 mm | - | - | - |
| 1778075249 | 7.22° C | 51% | 1015.5 hPa | 0 mm | - | - | - |
| 1778072549 | 5.56° C | 59% | 1014.8 hPa | 0 mm | - | - | - |
| 1778070749 | 3.89° C | 67% | 1014.5 hPa | 0 mm | - | - | - |
| 1778069849 | 3.89° C | 66% | 1014.3 hPa | 0 mm | - | - | - |
| 1778068049 | 3.33° C | 67% | 1014.2 hPa | 0 mm | - | - | - |
| 1778067149 | 3.33° C | 67% | 1013.9 hPa | 0 mm | - | - | - |
| 1778064449 | 3.89° C | 64% | 1013.5 hPa | 0 mm | - | - | - |
| 1778063549 | 3.89° C | 64% | 1013.4 hPa | 0 mm | - | - | - |
| 1778062649 | 3.89° C | 64% | 1013.3 hPa | 0 mm | - | - | - |
| 1778060849 | 4.44° C | 61% | 1013.1 hPa | 0 mm | - | - | - |
| 1778059949 | 4.44° C | 61% | 1013.1 hPa | 0 mm | - | - | - |
| 1778059469 | 4.44° C | 62% | 1013.1 hPa | 0 mm | - | - | - |
| 1778058989 | 4.44° C | 62% | 1013.1 hPa | 0 mm | - | - | - |
| 1778058749 | 4.44° C | 63% | 1013.1 hPa | 0 mm | - | - | - |
| 1778058509 | 4.44° C | 62% | 1013 hPa | 0 mm | - | - | - |
| 1778058389 | 4.44° C | 62% | 1012.9 hPa | 0 mm | - | - | - |
| 1778058269 | 4.44° C | 62% | 1012.8 hPa | 0 mm | - | - | - |
| 1778058209 | 4.44° C | 62% | 1012.7 hPa | 0 mm | - | - | - |
| 1778057247 | 4.44° C | 63% | 1012.7 hPa | 0 mm | - | - | - |
| 1778056347 | 3.89° C | 63% | 1012.5 hPa | 0 mm | - | - | - |
| 1778055447 | 3.89° C | 63% | 1012.3 hPa | 0 mm | - | - | - |
| 1778054547 | 3.33° C | 62% | 1012.2 hPa | 0 mm | - | - | - |
| 1778053647 | 3.33° C | 62% | 1012.3 hPa | 0 mm | - | - | - |
* Rain latest hour (hover to see other rain measurements)
** Current wind speed in m/s (hover to see current wind gust speed)